sensor_id;sensor_type;location;lat;lon;timestamp;pressure;altitude;pressure_sealevel;temperature;humidity
7774;BME280;3931;42.260;23.116;2022-08-21T00:01:57;94752.13;;;30.82;68.78
7774;BME280;3931;42.260;23.116;2022-08-21T00:04:24;94759.22;;;30.98;68.46
7774;BME280;3931;42.260;23.116;2022-08-21T00:06:51;94734.59;;;30.69;69.75
7774;BME280;3931;42.260;23.116;2022-08-21T00:09:18;94666.28;;;30.12;72.09
7774;BME280;3931;42.260;23.116;2022-08-21T00:11:44;94676.94;;;30.11;72.00
7774;BME280;3931;42.260;23.116;2022-08-21T00:14:12;94708.31;;;30.36;70.70
7774;BME280;3931;42.260;23.116;2022-08-21T00:16:38;94722.66;;;30.28;69.73
7774;BME280;3931;42.260;23.116;2022-08-21T00:19:05;94702.28;;;30.07;70.36
7774;BME280;3931;42.260;23.116;2022-08-21T00:21:32;94696.75;;;29.92;70.96
7774;BME280;3931;42.260;23.116;2022-08-21T00:23:59;94791.72;;;30.86;67.33
7774;BME280;3931;42.260;23.116;2022-08-21T00:26:25;94790.44;;;30.62;67.26
7774;BME280;3931;42.260;23.116;2022-08-21T00:28:51;94729.66;;;30.35;69.88
7774;BME280;3931;42.260;23.116;2022-08-21T00:31:17;94736.50;;;30.83;69.40
7774;BME280;3931;42.260;23.116;2022-08-21T00:33:44;94699.66;;;30.44;70.79
7774;BME280;3931;42.260;23.116;2022-08-21T00:36:12;94753.41;;;30.72;68.73
7774;BME280;3931;42.260;23.116;2022-08-21T00:38:38;94736.69;;;30.51;69.41
7774;BME280;3931;42.260;23.116;2022-08-21T00:41:07;94726.19;;;30.37;69.51
7774;BME280;3931;42.260;23.116;2022-08-21T00:43:36;94700.78;;;30.06;71.00
7774;BME280;3931;42.260;23.116;2022-08-21T00:46:04;94695.09;;;30.06;71.14
7774;BME280;3931;42.260;23.116;2022-08-21T00:48:31;94630.81;;;29.64;74.20
7774;BME280;3931;42.260;23.116;2022-08-21T00:51:01;94688.56;;;29.64;72.21
7774;BME280;3931;42.260;23.116;2022-08-21T00:53:29;94681.38;;;29.88;72.87
7774;BME280;3931;42.260;23.116;2022-08-21T00:55:57;94647.16;;;29.63;74.05
7774;BME280;3931;42.260;23.116;2022-08-21T00:58:24;94661.91;;;29.69;73.79
7774;BME280;3931;42.260;23.116;2022-08-21T01:00:53;94625.00;;;29.29;74.84
7774;BME280;3931;42.260;23.116;2022-08-21T01:03:22;94657.94;;;29.47;74.24
7774;BME280;3931;42.260;23.116;2022-08-21T01:05:50;94566.59;;;28.88;78.23
7774;BME280;3931;42.260;23.116;2022-08-21T01:08:18;94564.50;;;29.14;77.47
7774;BME280;3931;42.260;23.116;2022-08-21T01:10:45;94612.03;;;29.36;76.64
7774;BME280;3931;42.260;23.116;2022-08-21T01:13:14;94617.25;;;29.47;75.62
7774;BME280;3931;42.260;23.116;2022-08-21T01:15:44;94469.03;;;28.63;81.85
7774;BME280;3931;42.260;23.116;2022-08-21T01:18:12;94520.38;;;28.98;79.15
7774;BME280;3931;42.260;23.116;2022-08-21T01:20:41;94518.53;;;28.93;80.00
7774;BME280;3931;42.260;23.116;2022-08-21T01:23:08;94551.38;;;29.18;78.22
7774;BME280;3931;42.260;23.116;2022-08-21T01:25:35;94670.91;;;30.07;73.55
7774;BME280;3931;42.260;23.116;2022-08-21T01:28:04;94696.84;;;30.19;71.17
7774;BME280;3931;42.260;23.116;2022-08-21T01:30:34;94724.84;;;30.55;69.19
7774;BME280;3931;42.260;23.116;2022-08-21T01:33:01;94722.81;;;30.65;69.38
7774;BME280;3931;42.260;23.116;2022-08-21T01:35:28;94742.09;;;30.64;67.80
7774;BME280;3931;42.260;23.116;2022-08-21T01:37:54;94704.41;;;30.24;70.23
7774;BME280;3931;42.260;23.116;2022-08-21T01:40:21;94678.31;;;30.10;70.99
7774;BME280;3931;42.260;23.116;2022-08-21T01:42:47;94675.69;;;30.05;70.73
7774;BME280;3931;42.260;23.116;2022-08-21T01:45:15;94594.22;;;29.52;74.65
7774;BME280;3931;42.260;23.116;2022-08-21T01:47:42;94516.50;;;29.10;77.73
7774;BME280;3931;42.260;23.116;2022-08-21T01:50:11;94519.63;;;29.22;77.73
7774;BME280;3931;42.260;23.116;2022-08-21T01:52:38;94478.06;;;28.94;79.70
7774;BME280;3931;42.260;23.116;2022-08-21T01:55:07;94445.47;;;28.88;81.06
7774;BME280;3931;42.260;23.116;2022-08-21T01:57:34;94543.63;;;29.36;77.02
7774;BME280;3931;42.260;23.116;2022-08-21T02:00:03;94567.16;;;29.61;76.27
7774;BME280;3931;42.260;23.116;2022-08-21T02:02:29;94539.28;;;29.52;77.51
7774;BME280;3931;42.260;23.116;2022-08-21T02:04:55;94460.81;;;28.92;80.30
7774;BME280;3931;42.260;23.116;2022-08-21T02:07:21;94463.88;;;28.86;80.21
7774;BME280;3931;42.260;23.116;2022-08-21T02:09:47;94480.47;;;28.80;79.89
7774;BME280;3931;42.260;23.116;2022-08-21T02:12:14;94500.84;;;28.94;79.00
7774;BME280;3931;42.260;23.116;2022-08-21T02:14:41;94566.09;;;29.32;76.09
7774;BME280;3931;42.260;23.116;2022-08-21T02:17:07;94594.72;;;29.58;74.18
7774;BME280;3931;42.260;23.116;2022-08-21T02:19:33;94606.97;;;29.27;74.09
7774;BME280;3931;42.260;23.116;2022-08-21T02:21:59;94479.56;;;28.95;79.61
7774;BME280;3931;42.260;23.116;2022-08-21T02:24:25;94559.91;;;29.43;76.74
7774;BME280;3931;42.260;23.116;2022-08-21T02:26:51;94562.69;;;29.50;75.53
7774;BME280;3931;42.260;23.116;2022-08-21T02:29:17;94562.06;;;29.35;76.54
7774;BME280;3931;42.260;23.116;2022-08-21T02:31:44;94564.03;;;29.49;76.24
7774;BME280;3931;42.260;23.116;2022-08-21T02:34:10;94610.91;;;29.73;73.85
7774;BME280;3931;42.260;23.116;2022-08-21T02:36:36;94655.28;;;29.91;71.92
7774;BME280;3931;42.260;23.116;2022-08-21T02:39:03;94612.63;;;29.76;73.38
7774;BME280;3931;42.260;23.116;2022-08-21T02:41:29;94694.47;;;30.33;71.16
7774;BME280;3931;42.260;23.116;2022-08-21T02:43:55;94621.59;;;29.73;73.27
7774;BME280;3931;42.260;23.116;2022-08-21T02:46:21;94629.75;;;29.93;73.15
7774;BME280;3931;42.260;23.116;2022-08-21T02:48:48;94702.34;;;30.42;70.12
7774;BME280;3931;42.260;23.116;2022-08-21T02:51:16;94689.50;;;30.33;70.71
7774;BME280;3931;42.260;23.116;2022-08-21T02:53:43;94640.50;;;29.85;72.88
7774;BME280;3931;42.260;23.116;2022-08-21T02:56:13;94607.13;;;29.53;74.60
7774;BME280;3931;42.260;23.116;2022-08-21T02:58:42;94652.75;;;29.78;72.83
7774;BME280;3931;42.260;23.116;2022-08-21T03:01:09;94594.06;;;29.68;75.17
7774;BME280;3931;42.260;23.116;2022-08-21T03:03:35;94568.47;;;29.43;76.19
7774;BME280;3931;42.260;23.116;2022-08-21T03:06:03;94638.81;;;29.82;73.42
7774;BME280;3931;42.260;23.116;2022-08-21T03:08:29;94661.84;;;30.01;72.21
7774;BME280;3931;42.260;23.116;2022-08-21T03:10:55;94680.66;;;30.21;71.20
7774;BME280;3931;42.260;23.116;2022-08-21T03:13:22;94665.28;;;30.17;71.61
7774;BME280;3931;42.260;23.116;2022-08-21T03:15:48;94679.94;;;29.96;71.53
7774;BME280;3931;42.260;23.116;2022-08-21T03:18:15;94673.50;;;29.96;71.65
7774;BME280;3931;42.260;23.116;2022-08-21T03:20:43;94676.13;;;30.18;70.83
7774;BME280;3931;42.260;23.116;2022-08-21T03:23:11;94680.56;;;30.12;71.13
7774;BME280;3931;42.260;23.116;2022-08-21T03:25:38;94622.88;;;29.79;73.32
7774;BME280;3931;42.260;23.116;2022-08-21T03:28:06;94629.16;;;29.78;73.11
7774;BME280;3931;42.260;23.116;2022-08-21T03:30:33;94641.53;;;29.97;72.80
7774;BME280;3931;42.260;23.116;2022-08-21T03:32:59;94661.31;;;29.95;71.86
7774;BME280;3931;42.260;23.116;2022-08-21T03:35:26;94637.88;;;29.80;73.26
7774;BME280;3931;42.260;23.116;2022-08-21T03:37:52;94689.38;;;30.06;71.25
7774;BME280;3931;42.260;23.116;2022-08-21T03:40:21;94586.06;;;29.49;75.31
7774;BME280;3931;42.260;23.116;2022-08-21T03:42:47;94701.28;;;30.12;70.84
7774;BME280;3931;42.260;23.116;2022-08-21T03:45:14;94656.09;;;29.84;73.16
7774;BME280;3931;42.260;23.116;2022-08-21T03:47:51;94632.38;;;29.57;73.19
7774;BME280;3931;42.260;23.116;2022-08-21T03:50:17;94658.78;;;29.82;72.70
7774;BME280;3931;42.260;23.116;2022-08-21T03:52:43;94674.31;;;29.89;71.65
7774;BME280;3931;42.260;23.116;2022-08-21T03:55:10;94677.59;;;30.02;71.18
7774;BME280;3931;42.260;23.116;2022-08-21T03:57:37;94682.47;;;30.09;71.19
7774;BME280;3931;42.260;23.116;2022-08-21T04:00:04;94648.56;;;29.79;72.67
7774;BME280;3931;42.260;23.116;2022-08-21T04:02:33;94630.03;;;29.63;73.80
7774;BME280;3931;42.260;23.116;2022-08-21T04:04:59;94646.50;;;29.72;72.79
7774;BME280;3931;42.260;23.116;2022-08-21T04:07:25;94716.91;;;30.11;70.56
7774;BME280;3931;42.260;23.116;2022-08-21T04:09:51;94643.31;;;29.68;73.20
7774;BME280;3931;42.260;23.116;2022-08-21T04:12:17;94670.44;;;29.77;71.90
7774;BME280;3931;42.260;23.116;2022-08-21T04:14:45;94716.72;;;30.09;69.78
7774;BME280;3931;42.260;23.116;2022-08-21T04:17:11;94656.53;;;29.81;72.36
7774;BME280;3931;42.260;23.116;2022-08-21T04:19:37;94653.50;;;29.79;72.68
7774;BME280;3931;42.260;23.116;2022-08-21T04:22:03;94657.56;;;29.68;72.21
7774;BME280;3931;42.260;23.116;2022-08-21T04:24:29;94616.28;;;29.69;74.61
7774;BME280;3931;42.260;23.116;2022-08-21T04:26:55;94650.75;;;29.88;72.49
7774;BME280;3931;42.260;23.116;2022-08-21T04:29:21;94690.53;;;30.03;71.11
7774;BME280;3931;42.260;23.116;2022-08-21T04:31:48;94731.56;;;30.33;69.68
7774;BME280;3931;42.260;23.116;2022-08-21T04:34:14;94725.56;;;30.21;70.19
7774;BME280;3931;42.260;23.116;2022-08-21T04:36:40;94730.69;;;30.22;69.48
7774;BME280;3931;42.260;23.116;2022-08-21T04:39:07;94737.44;;;30.35;69.27
7774;BME280;3931;42.260;23.116;2022-08-21T04:41:33;94756.28;;;30.55;68.87
7774;BME280;3931;42.260;23.116;2022-08-21T04:43:59;94749.66;;;30.27;69.29
7774;BME280;3931;42.260;23.116;2022-08-21T04:46:25;94737.94;;;29.99;69.84
7774;BME280;3931;42.260;23.116;2022-08-21T04:48:51;94705.19;;;29.83;71.48
7774;BME280;3931;42.260;23.116;2022-08-21T04:51:21;94708.91;;;29.93;70.90
7774;BME280;3931;42.260;23.116;2022-08-21T04:53:52;94670.59;;;29.54;72.58
7774;BME280;3931;42.260;23.116;2022-08-21T04:56:21;94501.03;;;28.71;79.09
7774;BME280;3931;42.260;23.116;2022-08-21T04:58:47;94652.41;;;29.49;74.37
7774;BME280;3931;42.260;23.116;2022-08-21T05:01:18;94636.91;;;29.35;74.93
7774;BME280;3931;42.260;23.116;2022-08-21T05:03:46;94685.50;;;29.70;72.84
7774;BME280;3931;42.260;23.116;2022-08-21T05:06:15;94607.84;;;29.12;76.29
7774;BME280;3931;42.260;23.116;2022-08-21T05:08:43;94595.06;;;29.21;76.17
7774;BME280;3931;42.260;23.116;2022-08-21T05:11:10;94601.09;;;29.25;76.49
7774;BME280;3931;42.260;23.116;2022-08-21T05:13:36;94644.78;;;29.52;74.30
7774;BME280;3931;42.260;23.116;2022-08-21T05:16:03;94631.94;;;29.19;75.66
7774;BME280;3931;42.260;23.116;2022-08-21T05:18:29;94675.84;;;29.40;73.14
7774;BME280;3931;42.260;23.116;2022-08-21T05:20:55;94753.03;;;29.92;70.56
7774;BME280;3931;42.260;23.116;2022-08-21T05:23:23;94732.88;;;29.65;71.01
7774;BME280;3931;42.260;23.116;2022-08-21T05:25:50;94734.31;;;29.81;70.97
7774;BME280;3931;42.260;23.116;2022-08-21T05:28:17;94697.31;;;29.41;72.50
7774;BME280;3931;42.260;23.116;2022-08-21T05:30:44;94660.16;;;29.32;74.49
7774;BME280;3931;42.260;23.116;2022-08-21T05:33:10;94657.84;;;29.06;74.57
7774;BME280;3931;42.260;23.116;2022-08-21T05:35:37;94510.97;;;28.63;79.73
7774;BME280;3931;42.260;23.116;2022-08-21T05:38:04;94612.59;;;29.10;76.19
7774;BME280;3931;42.260;23.116;2022-08-21T05:40:32;94651.28;;;29.45;73.83
7774;BME280;3931;42.260;23.116;2022-08-21T05:42:58;94654.66;;;29.51;73.86
7774;BME280;3931;42.260;23.116;2022-08-21T05:45:27;94672.16;;;29.72;72.94
7774;BME280;3931;42.260;23.116;2022-08-21T05:47:54;94660.91;;;29.57;73.47
7774;BME280;3931;42.260;23.116;2022-08-21T05:50:20;94632.16;;;29.38;74.70
7774;BME280;3931;42.260;23.116;2022-08-21T05:52:46;94702.75;;;29.79;71.20
7774;BME280;3931;42.260;23.116;2022-08-21T05:55:12;94586.19;;;28.52;76.90
7774;BME280;3931;42.260;23.116;2022-08-21T05:57:39;94568.16;;;29.07;77.56
7774;BME280;3931;42.260;23.116;2022-08-21T06:00:08;94575.84;;;28.97;77.69
7774;BME280;3931;42.260;23.116;2022-08-21T06:02:34;94550.72;;;29.03;77.70
7774;BME280;3931;42.260;23.116;2022-08-21T06:05:01;94683.97;;;29.69;72.93
7774;BME280;3931;42.260;23.116;2022-08-21T06:07:27;94570.22;;;29.38;77.00
7774;BME280;3931;42.260;23.116;2022-08-21T06:09:54;94806.41;;;30.65;67.07
7774;BME280;3931;42.260;23.116;2022-08-21T06:12:20;94847.22;;;31.78;63.36
7774;BME280;3931;42.260;23.116;2022-08-21T06:14:47;94867.03;;;31.93;61.34
7774;BME280;3931;42.260;23.116;2022-08-21T06:17:13;94868.72;;;32.59;60.11
7774;BME280;3931;42.260;23.116;2022-08-21T06:19:40;94893.03;;;32.77;57.27
7774;BME280;3931;42.260;23.116;2022-08-21T06:22:06;94846.84;;;31.64;61.85
7774;BME280;3931;42.260;23.116;2022-08-21T06:24:33;94813.47;;;31.33;64.53
7774;BME280;3931;42.260;23.116;2022-08-21T06:27:04;94834.00;;;31.56;63.56
7774;BME280;3931;42.260;23.116;2022-08-21T06:29:30;94864.13;;;31.84;61.67
7774;BME280;3931;42.260;23.116;2022-08-21T06:31:57;94904.75;;;32.26;58.48
7774;BME280;3931;42.260;23.116;2022-08-21T06:34:23;94882.66;;;31.83;59.97
7774;BME280;3931;42.260;23.116;2022-08-21T06:36:49;94855.53;;;31.40;62.03
7774;BME280;3931;42.260;23.116;2022-08-21T06:39:15;94850.38;;;31.55;62.21
7774;BME280;3931;42.260;23.116;2022-08-21T06:41:41;94849.75;;;31.13;62.60
7774;BME280;3931;42.260;23.116;2022-08-21T06:44:07;94878.16;;;31.89;59.88
7774;BME280;3931;42.260;23.116;2022-08-21T06:46:33;94872.44;;;31.89;60.38
7774;BME280;3931;42.260;23.116;2022-08-21T06:49:00;94859.34;;;31.42;61.29
7774;BME280;3931;42.260;23.116;2022-08-21T06:51:27;94879.88;;;32.28;59.24
7774;BME280;3931;42.260;23.116;2022-08-21T06:53:53;94875.03;;;32.21;60.15
7774;BME280;3931;42.260;23.116;2022-08-21T06:56:20;94862.00;;;31.57;60.71
7774;BME280;3931;42.260;23.116;2022-08-21T06:58:46;94833.31;;;31.31;63.16
7774;BME280;3931;42.260;23.116;2022-08-21T07:01:12;94859.16;;;31.23;61.35
7774;BME280;3931;42.260;23.116;2022-08-21T07:03:41;94830.09;;;31.00;63.24
7774;BME280;3931;42.260;23.116;2022-08-21T07:06:09;94826.34;;;30.73;63.43
7774;BME280;3931;42.260;23.116;2022-08-21T07:08:36;94829.19;;;30.73;63.46
7774;BME280;3931;42.260;23.116;2022-08-21T07:11:07;94859.25;;;30.74;61.59
7774;BME280;3931;42.260;23.116;2022-08-21T07:13:35;94795.84;;;30.75;64.90
7774;BME280;3931;42.260;23.116;2022-08-21T07:16:01;94850.63;;;31.50;61.48
7774;BME280;3931;42.260;23.116;2022-08-21T07:18:27;94819.59;;;30.78;63.89
7774;BME280;3931;42.260;23.116;2022-08-21T07:20:54;94832.47;;;31.38;62.64
7774;BME280;3931;42.260;23.116;2022-08-21T07:23:24;94844.91;;;31.94;61.53
7774;BME280;3931;42.260;23.116;2022-08-21T07:25:52;94834.94;;;31.68;62.10
7774;BME280;3931;42.260;23.116;2022-08-21T07:28:18;94839.97;;;31.50;61.22
7774;BME280;3931;42.260;23.116;2022-08-21T07:30:44;94822.75;;;31.07;62.25
7774;BME280;3931;42.260;23.116;2022-08-21T07:33:11;94821.06;;;31.21;62.21
7774;BME280;3931;42.260;23.116;2022-08-21T07:35:38;94835.50;;;31.40;60.84
7774;BME280;3931;42.260;23.116;2022-08-21T07:38:04;94869.38;;;32.04;58.79
7774;BME280;3931;42.260;23.116;2022-08-21T07:40:30;94860.69;;;31.95;58.51
7774;BME280;3931;42.260;23.116;2022-08-21T07:42:56;94876.56;;;32.68;56.98
7774;BME280;3931;42.260;23.116;2022-08-21T07:45:23;94881.38;;;33.12;56.10
7774;BME280;3931;42.260;23.116;2022-08-21T07:47:50;94877.03;;;32.65;55.65
7774;BME280;3931;42.260;23.116;2022-08-21T07:50:17;94882.13;;;33.50;55.37
7774;BME280;3931;42.260;23.116;2022-08-21T07:52:43;94887.78;;;34.27;53.29
7774;BME280;3931;42.260;23.116;2022-08-21T07:55:12;94886.97;;;34.55;50.37
7774;BME280;3931;42.260;23.116;2022-08-21T07:57:39;94896.31;;;34.06;52.05
7774;BME280;3931;42.260;23.116;2022-08-21T08:00:10;94886.59;;;34.91;50.34
7774;BME280;3931;42.260;23.116;2022-08-21T08:02:36;94883.06;;;33.53;51.66
7774;BME280;3931;42.260;23.116;2022-08-21T08:05:04;94886.03;;;34.12;51.25
7774;BME280;3931;42.260;23.116;2022-08-21T08:07:30;94875.03;;;33.42;51.70
7774;BME280;3931;42.260;23.116;2022-08-21T08:09:57;94882.28;;;33.24;52.66
7774;BME280;3931;42.260;23.116;2022-08-21T08:12:23;94885.59;;;33.77;51.45
7774;BME280;3931;42.260;23.116;2022-08-21T08:14:55;94878.19;;;34.03;50.98
7774;BME280;3931;42.260;23.116;2022-08-21T08:17:21;94884.22;;;34.07;50.35
7774;BME280;3931;42.260;23.116;2022-08-21T08:19:48;94880.81;;;33.61;50.98
7774;BME280;3931;42.260;23.116;2022-08-21T08:22:15;94877.94;;;33.61;51.39
7774;BME280;3931;42.260;23.116;2022-08-21T08:24:42;94871.75;;;32.71;52.66
7774;BME280;3931;42.260;23.116;2022-08-21T08:27:08;94858.22;;;31.55;55.94
7774;BME280;3931;42.260;23.116;2022-08-21T08:29:34;94844.63;;;31.73;56.12
7774;BME280;3931;42.260;23.116;2022-08-21T08:32:02;94860.41;;;32.17;55.17
7774;BME280;3931;42.260;23.116;2022-08-21T08:34:28;94859.94;;;32.21;55.11
7774;BME280;3931;42.260;23.116;2022-08-21T08:36:55;94858.22;;;32.81;54.19
7774;BME280;3931;42.260;23.116;2022-08-21T08:39:23;94869.00;;;33.09;52.71
7774;BME280;3931;42.260;23.116;2022-08-21T08:41:52;94866.72;;;33.46;52.02
7774;BME280;3931;42.260;23.116;2022-08-21T08:44:22;94868.31;;;34.16;51.27
7774;BME280;3931;42.260;23.116;2022-08-21T08:46:50;94861.28;;;34.38;50.00
7774;BME280;3931;42.260;23.116;2022-08-21T08:49:22;94865.66;;;33.79;51.95
7774;BME280;3931;42.260;23.116;2022-08-21T08:51:55;94865.78;;;34.01;51.13
7774;BME280;3931;42.260;23.116;2022-08-21T08:54:27;94870.41;;;34.25;51.36
7774;BME280;3931;42.260;23.116;2022-08-21T08:56:58;94865.31;;;34.04;51.32
7774;BME280;3931;42.260;23.116;2022-08-21T08:59:27;94865.03;;;33.91;51.29
7774;BME280;3931;42.260;23.116;2022-08-21T09:01:59;94861.41;;;33.90;51.66
7774;BME280;3931;42.260;23.116;2022-08-21T09:04:27;94875.94;;;33.92;52.17
7774;BME280;3931;42.260;23.116;2022-08-21T09:07:01;94868.72;;;33.53;51.80
7774;BME280;3931;42.260;23.116;2022-08-21T09:09:41;94862.00;;;33.89;52.17
7774;BME280;3931;42.260;23.116;2022-08-21T09:12:16;94852.66;;;33.88;51.54
7774;BME280;3931;42.260;23.116;2022-08-21T09:14:51;94854.06;;;33.68;53.06
7774;BME280;3931;42.260;23.116;2022-08-21T09:17:36;94831.88;;;33.21;54.27
7774;BME280;3931;42.260;23.116;2022-08-21T09:20:19;94834.44;;;33.17;54.21
7774;BME280;3931;42.260;23.116;2022-08-21T09:22:59;94834.56;;;33.28;53.61
7774;BME280;3931;42.260;23.116;2022-08-21T09:25:31;94827.03;;;33.33;54.17
7774;BME280;3931;42.260;23.116;2022-08-21T09:27:58;94802.84;;;32.97;56.12
7774;BME280;3931;42.260;23.116;2022-08-21T09:30:27;94803.81;;;33.10;55.76
7774;BME280;3931;42.260;23.116;2022-08-21T09:32:53;94801.94;;;32.66;56.16
7774;BME280;3931;42.260;23.116;2022-08-21T09:35:22;94793.97;;;32.74;57.05
7774;BME280;3931;42.260;23.116;2022-08-21T09:37:52;94798.78;;;32.91;55.99
7774;BME280;3931;42.260;23.116;2022-08-21T09:40:29;94794.25;;;32.69;56.60
7774;BME280;3931;42.260;23.116;2022-08-21T09:42:59;94775.59;;;32.31;57.82
7774;BME280;3931;42.260;23.116;2022-08-21T09:45:25;94804.50;;;33.48;54.02
7774;BME280;3931;42.260;23.116;2022-08-21T09:47:52;94808.72;;;34.26;51.05
7774;BME280;3931;42.260;23.116;2022-08-21T09:50:21;94800.59;;;33.63;52.70
7774;BME280;3931;42.260;23.116;2022-08-21T09:52:50;94810.97;;;34.27;51.15
7774;BME280;3931;42.260;23.116;2022-08-21T09:55:23;94804.19;;;34.23;51.41
7774;BME280;3931;42.260;23.116;2022-08-21T09:58:11;94811.91;;;34.82;49.15
7774;BME280;3931;42.260;23.116;2022-08-21T10:00:37;94800.28;;;34.18;51.49
7774;BME280;3931;42.260;23.116;2022-08-21T10:03:13;94783.66;;;34.17;50.60
7774;BME280;3931;42.260;23.116;2022-08-21T10:05:50;94795.34;;;34.71;49.87
7774;BME280;3931;42.260;23.116;2022-08-21T10:08:18;94797.78;;;34.65;49.82
7774;BME280;3931;42.260;23.116;2022-08-21T10:10:45;94785.00;;;34.56;50.44
7774;BME280;3931;42.260;23.116;2022-08-21T10:13:14;94782.53;;;34.83;50.68
7774;BME280;3931;42.260;23.116;2022-08-21T10:15:48;94785.09;;;35.75;48.07
7774;BME280;3931;42.260;23.116;2022-08-21T10:18:21;94777.09;;;35.08;48.45
7774;BME280;3931;42.260;23.116;2022-08-21T10:20:56;94776.22;;;33.83;50.77
7774;BME280;3931;42.260;23.116;2022-08-21T10:23:38;94777.34;;;34.39;50.60
7774;BME280;3931;42.260;23.116;2022-08-21T10:26:23;94764.34;;;33.48;52.83
7774;BME280;3931;42.260;23.116;2022-08-21T10:28:59;94754.81;;;33.65;53.03
7774;BME280;3931;42.260;23.116;2022-08-21T10:31:37;94761.00;;;34.42;50.24
7774;BME280;3931;42.260;23.116;2022-08-21T10:34:17;94762.00;;;34.25;50.44
7774;BME280;3931;42.260;23.116;2022-08-21T10:36:58;94765.72;;;34.68;50.05
7774;BME280;3931;42.260;23.116;2022-08-21T10:39:32;94765.50;;;34.55;50.72
7774;BME280;3931;42.260;23.116;2022-08-21T10:42:13;94756.59;;;34.93;49.15
7774;BME280;3931;42.260;23.116;2022-08-21T10:44:57;94764.66;;;34.85;49.74
7774;BME280;3931;42.260;23.116;2022-08-21T10:47:32;94767.75;;;35.20;49.14
7774;BME280;3931;42.260;23.116;2022-08-21T10:50:05;94766.44;;;35.11;47.97
7774;BME280;3931;42.260;23.116;2022-08-21T10:53:07;94756.50;;;34.08;50.87
7774;BME280;3931;42.260;23.116;2022-08-21T10:55:41;94746.69;;;34.32;50.81
7774;BME280;3931;42.260;23.116;2022-08-21T10:58:11;94742.19;;;35.14;49.16
7774;BME280;3931;42.260;23.116;2022-08-21T11:00:41;94738.94;;;35.08;49.55
7774;BME280;3931;42.260;23.116;2022-08-21T11:03:13;94733.59;;;34.93;49.08
7774;BME280;3931;42.260;23.116;2022-08-21T11:05:42;94726.38;;;34.40;51.33
7774;BME280;3931;42.260;23.116;2022-08-21T11:08:12;94722.72;;;34.70;49.84
7774;BME280;3931;42.260;23.116;2022-08-21T11:10:44;94726.22;;;34.17;50.30
7774;BME280;3931;42.260;23.116;2022-08-21T11:13:15;94742.09;;;34.70;49.70
7774;BME280;3931;42.260;23.116;2022-08-21T11:15:48;94743.03;;;34.84;48.28
7774;BME280;3931;42.260;23.116;2022-08-21T11:18:22;94747.00;;;34.58;48.08
7774;BME280;3931;42.260;23.116;2022-08-21T11:20:58;94740.75;;;34.40;49.09
7774;BME280;3931;42.260;23.116;2022-08-21T11:23:37;94716.78;;;34.57;50.11
7774;BME280;3931;42.260;23.116;2022-08-21T11:26:08;94718.19;;;34.46;49.80
7774;BME280;3931;42.260;23.116;2022-08-21T11:28:38;94727.56;;;35.10;49.06
7774;BME280;3931;42.260;23.116;2022-08-21T11:31:14;94720.81;;;34.63;49.60
7774;BME280;3931;42.260;23.116;2022-08-21T11:33:55;94721.75;;;34.04;51.32
7774;BME280;3931;42.260;23.116;2022-08-21T11:36:33;94732.38;;;34.44;49.78
7774;BME280;3931;42.260;23.116;2022-08-21T11:39:12;94724.78;;;33.97;50.50
7774;BME280;3931;42.260;23.116;2022-08-21T11:41:47;94725.88;;;33.51;52.37
7774;BME280;3931;42.260;23.116;2022-08-21T11:44:18;94712.69;;;33.48;52.99
7774;BME280;3931;42.260;23.116;2022-08-21T11:46:54;94708.56;;;33.21;54.22
7774;BME280;3931;42.260;23.116;2022-08-21T11:49:43;94704.22;;;32.72;55.52
7774;BME280;3931;42.260;23.116;2022-08-21T11:52:17;94702.53;;;32.97;55.75
7774;BME280;3931;42.260;23.116;2022-08-21T11:54:51;94697.69;;;32.90;55.89
7774;BME280;3931;42.260;23.116;2022-08-21T11:57:23;94639.16;;;31.98;60.22
7774;BME280;3931;42.260;23.116;2022-08-21T11:59:55;94546.50;;;31.28;65.35
7774;BME280;3931;42.260;23.116;2022-08-21T12:02:30;94501.94;;;31.16;68.29
7774;BME280;3931;42.260;23.116;2022-08-21T12:05:00;94450.81;;;30.83;70.71
7774;BME280;3931;42.260;23.116;2022-08-21T12:07:37;94433.00;;;31.02;72.18
7774;BME280;3931;42.260;23.116;2022-08-21T12:10:07;94383.06;;;31.03;74.32
7774;BME280;3931;42.260;23.116;2022-08-21T12:12:36;94397.69;;;31.36;74.14
7774;BME280;3931;42.260;23.116;2022-08-21T12:15:23;94236.84;;;30.78;80.52
7774;BME280;3931;42.260;23.116;2022-08-21T12:18:18;94367.44;;;31.23;75.59
7774;BME280;3931;42.260;23.116;2022-08-21T12:20:58;94378.88;;;31.23;75.35
7774;BME280;3931;42.260;23.116;2022-08-21T12:23:27;94465.00;;;31.56;71.69
7774;BME280;3931;42.260;23.116;2022-08-21T12:28:47;94475.69;;;31.55;71.24
7774;BME280;3931;42.260;23.116;2022-08-21T12:31:23;94497.41;;;31.87;70.90
7774;BME280;3931;42.260;23.116;2022-08-21T12:33:58;94451.44;;;31.56;71.97
7774;BME280;3931;42.260;23.116;2022-08-21T12:36:37;94482.03;;;31.73;70.95
7774;BME280;3931;42.260;23.116;2022-08-21T12:39:05;94544.25;;;32.11;68.42
7774;BME280;3931;42.260;23.116;2022-08-21T12:41:45;94505.09;;;32.04;69.62
7774;BME280;3931;42.260;23.116;2022-08-21T12:44:14;94598.50;;;32.47;65.73
7774;BME280;3931;42.260;23.116;2022-08-21T12:46:46;94574.53;;;32.33;66.33
7774;BME280;3931;42.260;23.116;2022-08-21T12:49:15;94466.44;;;31.28;71.17
7774;BME280;3931;42.260;23.116;2022-08-21T12:51:52;94374.59;;;30.86;75.13
7774;BME280;3931;42.260;23.116;2022-08-21T12:54:26;94356.75;;;30.40;76.52
7774;BME280;3931;42.260;23.116;2022-08-21T12:56:57;94370.31;;;30.58;75.86
7774;BME280;3931;42.260;23.116;2022-08-21T12:59:24;94243.50;;;30.06;80.76
7774;BME280;3931;42.260;23.116;2022-08-21T13:01:51;94138.50;;;29.39;85.56
7774;BME280;3931;42.260;23.116;2022-08-21T13:04:24;94136.72;;;29.53;86.61
7774;BME280;3931;42.260;23.116;2022-08-21T13:06:54;94123.41;;;29.66;87.40
7774;BME280;3931;42.260;23.116;2022-08-21T13:09:27;94195.56;;;29.95;85.11
7774;BME280;3931;42.260;23.116;2022-08-21T13:11:54;94127.41;;;29.53;88.50
7774;BME280;3931;42.260;23.116;2022-08-21T13:14:30;94146.91;;;29.93;86.96
7774;BME280;3931;42.260;23.116;2022-08-21T13:17:00;93979.28;;;29.26;94.67
7774;BME280;3931;42.260;23.116;2022-08-21T13:19:28;93992.84;;;29.45;94.28
7774;BME280;3931;42.260;23.116;2022-08-21T13:21:55;94084.97;;;29.57;91.43
7774;BME280;3931;42.260;23.116;2022-08-21T13:24:23;94094.97;;;29.94;89.74